Time;durP1;ratioP1;P1;durP2;ratioP2;P2;SDS_P1;SDS_P2;PMS_P1;PMS_P2;Temp;Humidity;BMP_temperature;BMP_pressure;BME280_temperature;BME280_humidity;BME280_pressure;Samples;Min_cycle;Max_cycle;Signal;HPM_P1;HPM_P2
2023/10/27 00:00:50;;;;;;;0.77;0.77;;;;;;;;;;5007956;28;20032;-85
2023/10/27 00:03:16;;;;;;;0.20;0.13;;;;;;;;;;4989011;28;20593;-85
2023/10/27 00:05:42;;;;;;;0.57;0.57;;;;;;;;;;5004542;28;20620;-85
2023/10/27 00:08:08;;;;;;;3.78;0.40;;;;;;;;;;4998242;28;20448;-86
2023/10/27 00:10:38;;;;;;;0.20;0.10;;;;;;;;;;4982573;28;20073;-84
2023/10/27 00:13:04;;;;;;;0.20;0.10;;;;;;;;;;5003395;28;20117;-84
2023/10/27 00:15:30;;;;;;;0.20;0.10;;;;;;;;;;5004616;28;20127;-84
2023/10/27 00:17:58;;;;;;;0.55;0.35;;;;;;;;;;4987959;28;20106;-85
2023/10/27 00:20:24;;;;;;;0.20;0.10;;;;;;;;;;4999598;28;20037;-86
2023/10/27 00:22:50;;;;;;;0.20;0.10;;;;;;;;;;4985255;28;20044;-85
2023/10/27 00:25:16;;;;;;;0.20;0.10;;;;;;;;;;4987302;28;20109;-85
2023/10/27 00:27:42;;;;;;;0.45;0.43;;;;;;;;;;4986087;28;20044;-85
2023/10/27 00:30:09;;;;;;;0.20;0.00;;;;;;;;;;5002693;28;20512;-84
2023/10/27 00:32:36;;;;;;;0.40;0.40;;;;;;;;;;4987818;28;20129;-85
2023/10/27 00:35:04;;;;;;;0.20;0.08;;;;;;;;;;4985344;28;20461;-85
2023/10/27 00:37:32;;;;;;;0.38;0.38;;;;;;;;;;5001820;28;20225;-84
2023/10/27 00:39:58;;;;;;;0.20;0.10;;;;;;;;;;5001337;28;20061;-84
2023/10/27 00:42:24;;;;;;;0.32;0.25;;;;;;;;;;4984065;28;20119;-85
2023/10/27 00:44:50;;;;;;;0.20;0.10;;;;;;;;;;5008713;28;20140;-85
2023/10/27 00:47:16;;;;;;;0.20;0.10;;;;;;;;;;4993138;28;20124;-84
2023/10/27 00:49:43;;;;;;;0.20;0.00;;;;;;;;;;5002899;28;20045;-84
2023/10/27 00:52:09;;;;;;;0.20;0.10;;;;;;;;;;4993644;28;20049;-84
2023/10/27 00:54:36;;;;;;;0.20;0.00;;;;;;;;;;5004687;28;20044;-84
2023/10/27 00:57:02;;;;;;;0.20;0.10;;;;;;;;;;4985886;28;20052;-84
2023/10/27 00:59:28;;;;;;;0.20;0.10;;;;;;;;;;5000084;28;20541;-84
2023/10/27 01:01:54;;;;;;;0.20;0.10;;;;;;;;;;4982988;28;20073;-84
2023/10/27 01:04:21;;;;;;;0.20;0.00;;;;;;;;;;5002141;28;20318;-84
2023/10/27 01:06:47;;;;;;;0.20;0.00;;;;;;;;;;5002907;28;20509;-83
2023/10/27 01:09:13;;;;;;;0.52;0.15;;;;;;;;;;4995826;28;20132;-84
2023/10/27 01:11:40;;;;;;;0.20;0.00;;;;;;;;;;4990935;28;20049;-84
2023/10/27 01:14:06;;;;;;;1.48;0.60;;;;;;;;;;5006444;28;20037;-85
2023/10/27 01:16:32;;;;;;;0.20;0.20;;;;;;;;;;5002348;28;20045;-85
2023/10/27 01:18:59;;;;;;;3.92;0.57;;;;;;;;;;4990594;28;20335;-85
2023/10/27 01:21:25;;;;;;;0.20;0.10;;;;;;;;;;5010369;28;20552;-85
2023/10/27 01:23:51;;;;;;;0.20;0.20;;;;;;;;;;5007202;28;20037;-85
2023/10/27 01:26:17;;;;;;;0.40;0.40;;;;;;;;;;4993601;28;20045;-84
2023/10/27 01:28:43;;;;;;;0.20;0.10;;;;;;;;;;5006999;28;20045;-85
2023/10/27 01:31:09;;;;;;;0.20;0.10;;;;;;;;;;4995025;28;20049;-84
2023/10/27 01:33:35;;;;;;;0.20;0.10;;;;;;;;;;5001710;28;20045;-85
2023/10/27 01:36:01;;;;;;;0.20;0.10;;;;;;;;;;4990390;28;20129;-84
2023/10/27 01:38:27;;;;;;;0.20;0.10;;;;;;;;;;5009534;28;20117;-84
2023/10/27 01:40:53;;;;;;;0.20;0.00;;;;;;;;;;5004793;28;20037;-84
2023/10/27 01:43:19;;;;;;;0.20;0.10;;;;;;;;;;5005204;28;20114;-84
2023/10/27 01:45:45;;;;;;;0.30;0.30;;;;;;;;;;5005109;28;20038;-85
2023/10/27 01:48:11;;;;;;;0.20;0.10;;;;;;;;;;4994115;28;20397;-83
2023/10/27 01:50:37;;;;;;;0.20;0.10;;;;;;;;;;5000117;28;20607;-86
2023/10/27 01:53:03;;;;;;;0.20;0.10;;;;;;;;;;5025414;28;20082;-84
2023/10/27 01:55:29;;;;;;;0.20;0.10;;;;;;;;;;5005802;28;20038;-83
2023/10/27 01:57:55;;;;;;;0.20;0.00;;;;;;;;;;5009050;28;20132;-83
2023/10/27 02:00:21;;;;;;;0.30;0.22;;;;;;;;;;5007662;28;20042;-84
2023/10/27 02:02:47;;;;;;;0.20;0.10;;;;;;;;;;4989135;28;20120;-83
2023/10/27 02:05:13;;;;;;;1.48;0.35;;;;;;;;;;5005110;28;20044;-83
2023/10/27 02:07:39;;;;;;;0.20;0.20;;;;;;;;;;4997270;28;20115;-84
2023/10/27 02:10:06;;;;;;;0.20;0.10;;;;;;;;;;5000236;28;20087;-83
2023/10/27 02:12:32;;;;;;;0.20;0.20;;;;;;;;;;5013341;28;20037;-85
2023/10/27 02:14:58;;;;;;;0.43;0.17;;;;;;;;;;4992262;28;20104;-85
2023/10/27 02:17:24;;;;;;;0.20;0.10;;;;;;;;;;4993780;28;20045;-85
2023/10/27 02:19:54;;;;;;;0.50;0.45;;;;;;;;;;5004377;28;20091;-85
2023/10/27 02:22:20;;;;;;;0.20;0.03;;;;;;;;;;4988878;28;20045;-84
2023/10/27 02:24:46;;;;;;;0.52;0.52;;;;;;;;;;5014033;28;20121;-84
2023/10/27 02:27:12;;;;;;;0.20;0.10;;;;;;;;;;5011095;28;20076;-84
2023/10/27 02:29:38;;;;;;;0.20;0.10;;;;;;;;;;4991837;28;20507;-84
2023/10/27 02:32:05;;;;;;;0.20;0.10;;;;;;;;;;4994775;28;20048;-85
2023/10/27 02:34:31;;;;;;;0.20;0.00;;;;;;;;;;5009167;28;20052;-84
2023/10/27 02:36:57;;;;;;;0.20;0.10;;;;;;;;;;5007339;28;20413;-84
2023/10/27 02:39:23;;;;;;;0.20;0.10;;;;;;;;;;5008261;28;20045;-85
2023/10/27 02:41:49;;;;;;;0.20;0.10;;;;;;;;;;4991747;28;20048;-85
2023/10/27 02:44:15;;;;;;;0.20;0.10;;;;;;;;;;5008296;28;20423;-85
2023/10/27 02:46:41;;;;;;;0.57;0.30;;;;;;;;;;4992011;28;20034;-84
2023/10/27 02:49:07;;;;;;;0.25;0.15;;;;;;;;;;4993072;28;20152;-85
2023/10/27 02:51:33;;;;;;;0.63;0.28;;;;;;;;;;5007911;28;20071;-84
2023/10/27 02:53:59;;;;;;;0.85;0.32;;;;;;;;;;4991525;28;20037;-85
2023/10/27 02:56:25;;;;;;;0.20;0.00;;;;;;;;;;5002333;28;20037;-84
2023/10/27 02:58:52;;;;;;;0.20;0.10;;;;;;;;;;5006780;28;20076;-85
2023/10/27 03:01:18;;;;;;;0.20;0.00;;;;;;;;;;5000518;28;20477;-84
2023/10/27 03:03:45;;;;;;;0.30;0.20;;;;;;;;;;5011073;28;20061;-83
2023/10/27 03:06:11;;;;;;;0.20;0.15;;;;;;;;;;4995352;28;20548;-83
2023/10/27 03:08:38;;;;;;;0.20;0.00;;;;;;;;;;4984663;28;20048;-84
2023/10/27 03:11:04;;;;;;;0.20;0.13;;;;;;;;;;4995498;28;20045;-85
2023/10/27 03:13:30;;;;;;;0.20;0.00;;;;;;;;;;4994268;28;20045;-84
2023/10/27 03:16:00;;;;;;;0.20;0.05;;;;;;;;;;4997711;28;20098;-83
2023/10/27 03:18:26;;;;;;;0.20;0.10;;;;;;;;;;4997558;28;20077;-84
2023/10/27 03:20:56;;;;;;;0.20;0.10;;;;;;;;;;4994848;28;20042;-85
2023/10/27 03:23:23;;;;;;;0.22;0.10;;;;;;;;;;5013166;28;20418;-86
2023/10/27 03:25:49;;;;;;;0.30;0.20;;;;;;;;;;5005240;28;20037;-84
2023/10/27 03:28:15;;;;;;;0.50;0.32;;;;;;;;;;5005245;28;20033;-84
2023/10/27 03:30:42;;;;;;;0.22;0.05;;;;;;;;;;4988242;28;20643;-84
2023/10/27 03:33:08;;;;;;;0.20;0.10;;;;;;;;;;4999137;28;20091;-85
2023/10/27 03:35:37;;;;;;;0.63;0.50;;;;;;;;;;5006680;28;20504;-83
2023/10/27 03:38:03;;;;;;;0.20;0.00;;;;;;;;;;5006582;28;20045;-85
2023/10/27 03:40:29;;;;;;;0.20;0.10;;;;;;;;;;5006538;28;20630;-84
2023/10/27 03:42:55;;;;;;;0.20;0.00;;;;;;;;;;4999484;28;20041;-85
2023/10/27 03:45:21;;;;;;;0.20;0.00;;;;;;;;;;5004598;28;20129;-84
2023/10/27 03:47:47;;;;;;;0.20;0.10;;;;;;;;;;4995517;28;20620;-84
2023/10/27 03:50:13;;;;;;;0.20;0.10;;;;;;;;;;5009544;28;20533;-84
2023/10/27 03:52:39;;;;;;;0.20;0.10;;;;;;;;;;4993972;28;20071;-84
2023/10/27 03:55:07;;;;;;;1.35;0.68;;;;;;;;;;4987709;28;20076;-84
2023/10/27 03:57:36;;;;;;;0.20;0.10;;;;;;;;;;5012416;28;20052;-84
2023/10/27 04:00:07;;;;;;;0.63;0.32;;;;;;;;;;5002653;28;20045;-84
2023/10/27 04:02:33;;;;;;;0.47;0.47;;;;;;;;;;4995683;28;20042;-84
2023/10/27 04:04:59;;;;;;;0.25;0.25;;;;;;;;;;4990000;28;20506;-84
2023/10/27 04:07:26;;;;;;;1.10;0.30;;;;;;;;;;5005720;28;20034;-84
2023/10/27 04:09:52;;;;;;;0.20;0.00;;;;;;;;;;5010426;28;20037;-85
2023/10/27 04:12:18;;;;;;;0.20;0.13;;;;;;;;;;5010382;28;20488;-84
2023/10/27 04:14:44;;;;;;;0.20;0.10;;;;;;;;;;4996362;28;20041;-83
2023/10/27 04:17:10;;;;;;;0.20;0.10;;;;;;;;;;4985330;28;20037;-84
2023/10/27 04:19:36;;;;;;;0.38;0.38;;;;;;;;;;4996708;28;20391;-83
2023/10/27 04:22:03;;;;;;;0.20;0.00;;;;;;;;;;5003815;28;20037;-85
2023/10/27 04:24:29;;;;;;;0.20;0.10;;;;;;;;;;4988162;28;20091;-84
2023/10/27 04:26:55;;;;;;;0.20;0.10;;;;;;;;;;4994298;28;20033;-84
2023/10/27 04:29:21;;;;;;;0.30;0.30;;;;;;;;;;5000580;28;20115;-85
2023/10/27 04:31:47;;;;;;;0.20;0.00;;;;;;;;;;4991027;28;20069;-86
2023/10/27 04:34:14;;;;;;;0.20;0.10;;;;;;;;;;4999737;28;20071;-83
2023/10/27 04:36:40;;;;;;;0.30;0.28;;;;;;;;;;4981911;28;20042;-83
2023/10/27 04:39:06;;;;;;;0.20;0.00;;;;;;;;;;5002227;28;20516;-84
2023/10/27 04:41:33;;;;;;;0.20;0.13;;;;;;;;;;5001598;28;20574;-84
2023/10/27 04:43:59;;;;;;;0.30;0.20;;;;;;;;;;4988008;28;20045;-84
2023/10/27 04:46:26;;;;;;;0.20;0.00;;;;;;;;;;5002506;28;20096;-84
2023/10/27 04:48:52;;;;;;;0.20;0.10;;;;;;;;;;5003204;28;20145;-84
2023/10/27 04:51:18;;;;;;;0.20;0.08;;;;;;;;;;4982257;28;21951;-85
2023/10/27 04:53:44;;;;;;;0.20;0.00;;;;;;;;;;4991745;28;20044;-84
2023/10/27 04:56:10;;;;;;;0.20;0.10;;;;;;;;;;5005874;28;20080;-83
2023/10/27 04:58:38;;;;;;;0.20;0.10;;;;;;;;;;4988591;28;20563;-83
2023/10/27 05:01:04;;;;;;;0.20;0.00;;;;;;;;;;4989402;28;20041;-84
2023/10/27 05:03:30;;;;;;;0.20;0.08;;;;;;;;;;5004958;28;20041;-82
2023/10/27 05:06:06;;;;;;;0.20;0.10;;;;;;;;;;4990842;28;20044;-84
2023/10/27 05:08:32;;;;;;;0.20;0.10;;;;;;;;;;5004869;28;20038;-84
2023/10/27 05:10:58;;;;;;;0.20;0.10;;;;;;;;;;5004059;28;20049;-84
2023/10/27 05:13:24;;;;;;;0.20;0.00;;;;;;;;;;4986448;28;20046;-86
2023/10/27 05:15:54;;;;;;;0.20;0.00;;;;;;;;;;5008102;28;20128;-84
2023/10/27 05:18:20;;;;;;;0.20;0.10;;;;;;;;;;4994007;28;20112;-84
2023/10/27 05:20:46;;;;;;;0.30;0.30;;;;;;;;;;4993485;28;20116;-83
2023/10/27 05:23:12;;;;;;;0.20;0.10;;;;;;;;;;5004969;28;20110;-83
2023/10/27 05:25:38;;;;;;;0.30;0.20;;;;;;;;;;5004490;28;20053;-83
2023/10/27 05:28:04;;;;;;;0.20;0.10;;;;;;;;;;4984644;28;20033;-83
2023/10/27 05:30:30;;;;;;;0.20;0.10;;;;;;;;;;4999824;28;20081;-82
2023/10/27 05:32:56;;;;;;;0.20;0.00;;;;;;;;;;5008872;28;20646;-85
2023/10/27 05:35:22;;;;;;;0.20;0.10;;;;;;;;;;5006465;28;20415;-83
2023/10/27 05:37:48;;;;;;;0.30;0.30;;;;;;;;;;5000713;28;20729;-84
2023/10/27 05:40:14;;;;;;;0.20;0.10;;;;;;;;;;4997374;28;20069;-84
2023/10/27 05:42:40;;;;;;;0.20;0.10;;;;;;;;;;4999774;28;20033;-83
2023/10/27 05:45:07;;;;;;;0.20;0.10;;;;;;;;;;4999270;28;20045;-84
2023/10/27 05:47:33;;;;;;;0.20;0.00;;;;;;;;;;4987573;28;20056;-83
2023/10/27 05:49:59;;;;;;;0.45;0.05;;;;;;;;;;5003943;28;20045;-84
2023/10/27 05:52:25;;;;;;;0.20;0.10;;;;;;;;;;4990525;28;20042;-84
2023/10/27 05:54:51;;;;;;;0.20;0.10;;;;;;;;;;4984258;28;20045;-83
2023/10/27 05:57:17;;;;;;;0.20;0.00;;;;;;;;;;5003725;28;20045;-84
2023/10/27 05:59:43;;;;;;;0.20;0.10;;;;;;;;;;4988359;28;20052;-83
2023/10/27 06:02:09;;;;;;;0.20;0.10;;;;;;;;;;4999195;28;20296;-84
2023/10/27 06:04:36;;;;;;;0.20;0.00;;;;;;;;;;4989755;28;20042;-84
2023/10/27 06:07:02;;;;;;;0.57;0.35;;;;;;;;;;5008595;28;20534;-84
2023/10/27 06:09:29;;;;;;;0.20;0.00;;;;;;;;;;4984353;28;20141;-84
2023/10/27 06:11:55;;;;;;;0.75;0.52;;;;;;;;;;4990271;28;20557;-85
2023/10/27 06:14:21;;;;;;;0.43;0.10;;;;;;;;;;4991201;28;20141;-84
2023/10/27 06:16:47;;;;;;;0.30;0.13;;;;;;;;;;4995462;28;20497;-85
2023/10/27 06:19:13;;;;;;;0.20;0.20;;;;;;;;;;4990967;28;20506;-85
2023/10/27 06:21:40;;;;;;;0.20;0.00;;;;;;;;;;4985972;28;20052;-84
2023/10/27 06:24:10;;;;;;;0.20;0.00;;;;;;;;;;4995342;28;20043;-84
2023/10/27 06:26:36;;;;;;;0.38;0.38;;;;;;;;;;5007944;28;20123;-85
2023/10/27 06:29:03;;;;;;;0.20;0.00;;;;;;;;;;4990283;28;20045;-85
2023/10/27 06:31:29;;;;;;;0.20;0.00;;;;;;;;;;5004097;28;20278;-84
2023/10/27 06:33:56;;;;;;;0.22;0.15;;;;;;;;;;4991231;28;20041;-84
2023/10/27 06:36:22;;;;;;;0.20;0.10;;;;;;;;;;4993012;28;20037;-85
2023/10/27 06:38:48;;;;;;;0.38;0.38;;;;;;;;;;4996163;28;20053;-87
2023/10/27 06:41:14;;;;;;;0.20;0.10;;;;;;;;;;4997941;28;20083;-85
2023/10/27 06:43:40;;;;;;;0.57;0.45;;;;;;;;;;4994490;28;20045;-85
2023/10/27 06:46:06;;;;;;;0.20;0.10;;;;;;;;;;4994364;28;20057;-85
2023/10/27 06:48:32;;;;;;;0.20;0.10;;;;;;;;;;4989811;28;20048;-85
2023/10/27 06:50:58;;;;;;;0.20;0.20;;;;;;;;;;4983551;28;20285;-84
2023/10/27 06:53:24;;;;;;;0.22;0.20;;;;;;;;;;5008637;28;20116;-84
2023/10/27 06:55:50;;;;;;;0.20;0.00;;;;;;;;;;4997001;28;20044;-84
2023/10/27 06:58:16;;;;;;;0.20;0.10;;;;;;;;;;5009525;28;20121;-85
2023/10/27 07:00:42;;;;;;;0.30;0.20;;;;;;;;;;4997539;28;20087;-84
2023/10/27 07:03:08;;;;;;;0.20;0.10;;;;;;;;;;4992427;28;20033;-84
2023/10/27 07:05:35;;;;;;;0.63;0.20;;;;;;;;;;4990255;28;20041;-83
2023/10/27 07:08:01;;;;;;;0.20;0.10;;;;;;;;;;5005352;28;20502;-86
2023/10/27 07:10:27;;;;;;;0.20;0.10;;;;;;;;;;5007910;28;20041;-85
2023/10/27 07:12:53;;;;;;;0.20;0.10;;;;;;;;;;4992308;28;21583;-84
2023/10/27 07:15:19;;;;;;;0.32;0.32;;;;;;;;;;4999596;28;20132;-85
2023/10/27 07:17:45;;;;;;;0.20;0.00;;;;;;;;;;5007305;28;20045;-87
2023/10/27 07:20:12;;;;;;;0.20;0.00;;;;;;;;;;5017997;28;20140;-83
2023/10/27 07:22:38;;;;;;;0.20;0.10;;;;;;;;;;5012262;28;20030;-84
2023/10/27 07:25:04;;;;;;;0.20;0.10;;;;;;;;;;5002079;28;20052;-85
2023/10/27 07:27:30;;;;;;;0.20;0.10;;;;;;;;;;4999163;28;20077;-83
2023/10/27 07:29:56;;;;;;;0.20;0.10;;;;;;;;;;5006288;28;20037;-85
2023/10/27 07:32:22;;;;;;;0.20;0.10;;;;;;;;;;5001873;28;20097;-86
2023/10/27 07:34:49;;;;;;;0.20;0.10;;;;;;;;;;5013322;28;20143;-86
2023/10/27 07:37:17;;;;;;;0.20;0.10;;;;;;;;;;4995661;28;20037;-85
2023/10/27 07:39:43;;;;;;;0.20;0.10;;;;;;;;;;5000944;28;20037;-84
2023/10/27 07:42:09;;;;;;;0.20;0.00;;;;;;;;;;4990686;28;20179;-89
2023/10/27 07:44:35;;;;;;;0.20;0.03;;;;;;;;;;4997448;28;20053;-84
2023/10/27 07:47:01;;;;;;;0.20;0.10;;;;;;;;;;5008669;28;20387;-87
2023/10/27 07:49:28;;;;;;;0.20;0.03;;;;;;;;;;5006956;28;20041;-85
2023/10/27 07:51:54;;;;;;;0.20;0.10;;;;;;;;;;5011520;28;20163;-84
2023/10/27 07:54:20;;;;;;;0.30;0.25;;;;;;;;;;4995759;28;20030;-84
2023/10/27 07:56:46;;;;;;;0.20;0.10;;;;;;;;;;4996875;28;20042;-84
2023/10/27 07:59:14;;;;;;;0.20;0.10;;;;;;;;;;4986675;28;20091;-84
2023/10/27 08:01:40;;;;;;;0.20;0.10;;;;;;;;;;4988940;28;20045;-84
2023/10/27 08:04:06;;;;;;;0.20;0.00;;;;;;;;;;4995840;28;20521;-87
2023/10/27 08:06:32;;;;;;;0.40;0.40;;;;;;;;;;4989882;28;20069;-84
2023/10/27 08:08:59;;;;;;;0.20;0.00;;;;;;;;;;5000045;28;20048;-86
2023/10/27 08:11:25;;;;;;;0.20;0.10;;;;;;;;;;5002953;28;20046;-85
2023/10/27 08:13:51;;;;;;;0.20;0.10;;;;;;;;;;4992551;28;20037;-84
2023/10/27 08:16:17;;;;;;;0.20;0.10;;;;;;;;;;5005242;28;20045;-84
2023/10/27 08:18:45;;;;;;;0.20;0.10;;;;;;;;;;4989867;28;20041;-85
2023/10/27 08:21:11;;;;;;;0.20;0.10;;;;;;;;;;4995198;28;20200;-86
2023/10/27 08:23:37;;;;;;;0.20;0.00;;;;;;;;;;5000555;28;20045;-85
2023/10/27 08:26:03;;;;;;;0.47;0.47;;;;;;;;;;4995980;28;20073;-84
2023/10/27 08:28:29;;;;;;;0.20;0.10;;;;;;;;;;5002406;28;20069;-84
2023/10/27 08:30:56;;;;;;;0.20;0.10;;;;;;;;;;4996178;28;20100;-85
2023/10/27 08:33:22;;;;;;;0.20;0.10;;;;;;;;;;4985060;28;20053;-86
2023/10/27 08:35:48;;;;;;;0.20;0.10;;;;;;;;;;5002995;28;20049;-83
2023/10/27 08:38:14;;;;;;;0.20;0.00;;;;;;;;;;5008662;28;20107;-84
2023/10/27 08:40:40;;;;;;;0.20;0.10;;;;;;;;;;4995730;28;20048;-84
2023/10/27 08:43:06;;;;;;;0.20;0.10;;;;;;;;;;4996778;28;20037;-85
2023/10/27 08:45:34;;;;;;;0.20;0.00;;;;;;;;;;4989124;28;20049;-84
2023/10/27 08:48:00;;;;;;;0.20;0.10;;;;;;;;;;5005747;28;20037;-85
2023/10/27 08:50:27;;;;;;;0.20;0.20;;;;;;;;;;4984377;28;20103;-85
2023/10/27 08:52:53;;;;;;;0.20;0.10;;;;;;;;;;5015393;28;20109;-84
2023/10/27 08:55:20;;;;;;;0.28;0.15;;;;;;;;;;5004786;28;20100;-86
2023/10/27 08:57:47;;;;;;;0.20;0.03;;;;;;;;;;4997439;28;20056;-84
2023/10/27 09:00:13;;;;;;;0.20;0.00;;;;;;;;;;4997365;28;20572;-86
2023/10/27 09:02:39;;;;;;;0.20;0.10;;;;;;;;;;4992624;28;20529;-85
2023/10/27 09:05:06;;;;;;;0.20;0.10;;;;;;;;;;4993663;28;20491;-83
2023/10/27 09:07:33;;;;;;;0.20;0.00;;;;;;;;;;4995088;28;20034;-84
2023/10/27 09:09:59;;;;;;;0.20;0.10;;;;;;;;;;5007381;28;20041;-84
2023/10/27 09:12:30;;;;;;;0.20;0.10;;;;;;;;;;5007114;28;20131;-85
2023/10/27 09:15:00;;;;;;;0.20;0.10;;;;;;;;;;5006905;28;20037;-85
2023/10/27 09:17:29;;;;;;;0.20;0.10;;;;;;;;;;4996479;28;20064;-83
2023/10/27 09:20:09;;;;;;;0.20;0.10;;;;;;;;;;4996412;28;20402;-83
2023/10/27 09:22:36;;;;;;;0.20;0.10;;;;;;;;;;4990164;28;20053;-82
2023/10/27 09:25:17;;;;;;;0.20;0.00;;;;;;;;;;5003864;28;20038;-86
2023/10/27 09:27:46;;;;;;;0.20;0.10;;;;;;;;;;5005732;28;20044;-84
2023/10/27 09:30:32;;;;;;;0.40;0.38;;;;;;;;;;4992353;28;20038;-84
2023/10/27 09:33:20;;;;;;;3.55;0.85;;;;;;;;;;4995549;28;20049;-86
2023/10/27 09:35:47;;;;;;;0.20;0.10;;;;;;;;;;4981706;28;20038;-85
2023/10/27 09:38:14;;;;;;;0.20;0.10;;;;;;;;;;4983344;28;20612;-83
2023/10/27 09:40:41;;;;;;;0.20;0.08;;;;;;;;;;4999472;28;20108;-83
2023/10/27 09:43:08;;;;;;;0.20;0.10;;;;;;;;;;5002459;28;20060;-83
2023/10/27 09:45:36;;;;;;;0.30;0.30;;;;;;;;;;5003275;28;20045;-85
2023/10/27 09:48:03;;;;;;;0.20;0.08;;;;;;;;;;5010716;28;20026;-83
2023/10/27 09:50:30;;;;;;;0.38;0.22;;;;;;;;;;5008741;28;20090;-84
2023/10/27 09:53:00;;;;;;;0.73;0.30;;;;;;;;;;5013118;28;20033;-83
2023/10/27 09:55:33;;;;;;;0.20;0.03;;;;;;;;;;5012692;28;20061;-83
2023/10/27 09:58:01;;;;;;;0.20;0.10;;;;;;;;;;5002903;28;20501;-82
2023/10/27 10:00:29;;;;;;;0.20;0.10;;;;;;;;;;5000228;28;20118;-83
2023/10/27 10:02:56;;;;;;;0.20;0.20;;;;;;;;;;4995147;28;20046;-84
2023/10/27 10:05:23;;;;;;;0.20;0.10;;;;;;;;;;4994469;28;20147;-83
2023/10/27 10:07:52;;;;;;;0.20;0.10;;;;;;;;;;5014483;28;20045;-82
2023/10/27 10:10:23;;;;;;;0.20;0.10;;;;;;;;;;4992380;28;20037;-83
2023/10/27 10:13:12;;;;;;;0.82;0.47;;;;;;;;;;5012506;28;20038;-82
2023/10/27 10:15:45;;;;;;;0.20;0.10;;;;;;;;;;4985000;28;20053;-83
2023/10/27 10:18:20;;;;;;;0.20;0.10;;;;;;;;;;4991848;28;20169;-82
2023/10/27 10:20:49;;;;;;;0.20;0.00;;;;;;;;;;5008523;28;20033;-84
2023/10/27 10:23:15;;;;;;;0.20;0.10;;;;;;;;;;5013326;28;20444;-82
2023/10/27 10:25:51;;;;;;;0.20;0.10;;;;;;;;;;5012358;28;20042;-84
2023/10/27 10:28:17;;;;;;;0.20;0.10;;;;;;;;;;5014508;28;20034;-82
2023/10/27 10:30:47;;;;;;;0.20;0.03;;;;;;;;;;5009648;28;20048;-82
2023/10/27 10:33:16;;;;;;;0.20;0.10;;;;;;;;;;4997214;28;20084;-82
2023/10/27 10:35:46;;;;;;;0.20;0.10;;;;;;;;;;5023982;28;20108;-83
2023/10/27 10:38:24;;;;;;;0.20;0.10;;;;;;;;;;5012218;28;20034;-82
2023/10/27 10:40:57;;;;;;;0.20;0.10;;;;;;;;;;5000278;28;20322;-83
2023/10/27 10:43:28;;;;;;;0.20;0.10;;;;;;;;;;5000689;28;20041;-83
2023/10/27 10:45:55;;;;;;;0.20;0.10;;;;;;;;;;5005594;28;20068;-83
2023/10/27 10:48:23;;;;;;;0.20;0.00;;;;;;;;;;4988304;28;20037;-83
2023/10/27 10:50:50;;;;;;;0.30;0.30;;;;;;;;;;5009357;28;20045;-82
2023/10/27 10:53:17;;;;;;;0.20;0.10;;;;;;;;;;5012034;28;20037;-82
2023/10/27 10:55:46;;;;;;;0.20;0.00;;;;;;;;;;5006730;28;20180;-83
2023/10/27 10:58:22;;;;;;;0.20;0.10;;;;;;;;;;4993703;28;20117;-83
2023/10/27 11:00:48;;;;;;;0.20;0.10;;;;;;;;;;4996368;28;20065;-83
2023/10/27 11:03:14;;;;;;;0.30;0.22;;;;;;;;;;4991985;28;20041;-82
2023/10/27 11:05:41;;;;;;;0.20;0.10;;;;;;;;;;4999277;28;20038;-81
2023/10/27 11:08:07;;;;;;;0.20;0.10;;;;;;;;;;5009606;28;20060;-82
2023/10/27 11:10:34;;;;;;;0.20;0.00;;;;;;;;;;5011084;28;20037;-81
2023/10/27 11:13:07;;;;;;;0.20;0.10;;;;;;;;;;5001497;28;20041;-81
2023/10/27 11:15:49;;;;;;;0.20;0.10;;;;;;;;;;5011733;28;20812;-82
2023/10/27 11:18:15;;;;;;;0.20;0.10;;;;;;;;;;4986690;28;20037;-81
2023/10/27 11:20:45;;;;;;;0.28;0.20;;;;;;;;;;5002571;28;20091;-82
2023/10/27 11:23:12;;;;;;;0.30;0.30;;;;;;;;;;4993278;28;20033;-81
2023/10/27 11:25:38;;;;;;;0.20;0.10;;;;;;;;;;5011290;28;20056;-81
2023/10/27 11:28:18;;;;;;;0.20;0.00;;;;;;;;;;5013322;28;20087;-81
2023/10/27 11:30:44;;;;;;;0.20;0.10;;;;;;;;;;4992251;28;20045;-82
2023/10/27 11:33:10;;;;;;;0.30;0.20;;;;;;;;;;4997635;28;20040;-83
2023/10/27 11:35:45;;;;;;;0.20;0.10;;;;;;;;;;5000413;28;20029;-81
2023/10/27 11:38:12;;;;;;;0.25;0.13;;;;;;;;;;5006198;28;20124;-81
2023/10/27 11:40:38;;;;;;;0.20;0.00;;;;;;;;;;5006824;28;20077;-81
2023/10/27 11:43:04;;;;;;;0.45;0.40;;;;;;;;;;5009751;28;20045;-82
2023/10/27 11:45:30;;;;;;;0.20;0.10;;;;;;;;;;5009955;28;20034;-83
2023/10/27 11:47:56;;;;;;;0.20;0.00;;;;;;;;;;4995915;28;20033;-81
2023/10/27 11:50:22;;;;;;;0.20;0.00;;;;;;;;;;5022517;28;20057;-81
2023/10/27 11:52:48;;;;;;;0.20;0.10;;;;;;;;;;5007763;28;20038;-80
2023/10/27 11:55:14;;;;;;;0.20;0.00;;;;;;;;;;4998315;28;20053;-82
2023/10/27 11:57:40;;;;;;;0.20;0.10;;;;;;;;;;4993395;28;20465;-81
2023/10/27 12:00:08;;;;;;;0.20;0.10;;;;;;;;;;5031243;28;20398;-81
2023/10/27 12:02:34;;;;;;;0.20;0.10;;;;;;;;;;4996555;28;20037;-81
2023/10/27 12:05:01;;;;;;;0.68;0.43;;;;;;;;;;5011686;28;20070;-81
2023/10/27 12:07:26;;;;;;;0.20;0.08;;;;;;;;;;5010927;28;20040;-81
2023/10/27 12:09:52;;;;;;;0.20;0.10;;;;;;;;;;4992274;28;20041;-81
2023/10/27 12:12:21;;;;;;;0.20;0.00;;;;;;;;;;5007902;28;20045;-80
2023/10/27 12:14:47;;;;;;;0.20;0.10;;;;;;;;;;5004174;28;20057;-81
2023/10/27 12:17:13;;;;;;;0.20;0.03;;;;;;;;;;5010863;28;20099;-82
2023/10/27 12:19:39;;;;;;;0.22;0.15;;;;;;;;;;5001833;28;20068;-82
2023/10/27 12:22:05;;;;;;;0.20;0.05;;;;;;;;;;5011788;28;20034;-82
2023/10/27 12:24:33;;;;;;;0.20;0.05;;;;;;;;;;5013018;28;20038;-82
2023/10/27 12:26:59;;;;;;;0.20;0.10;;;;;;;;;;5013175;28;20039;-82
2023/10/27 12:29:26;;;;;;;0.20;0.20;;;;;;;;;;5017904;28;20041;-82
2023/10/27 12:31:53;;;;;;;0.20;0.10;;;;;;;;;;5017363;28;20048;-81
2023/10/27 12:34:19;;;;;;;0.20;0.20;;;;;;;;;;5010384;28;20041;-81
2023/10/27 12:36:45;;;;;;;0.25;0.17;;;;;;;;;;5010651;28;20038;-82
2023/10/27 12:39:12;;;;;;;0.50;0.20;;;;;;;;;;4999254;28;20352;-86
2023/10/27 12:41:38;;;;;;;0.28;0.25;;;;;;;;;;5016552;28;20065;-82
2023/10/27 12:44:04;;;;;;;0.20;0.10;;;;;;;;;;5007997;28;20603;-82
2023/10/27 12:46:30;;;;;;;0.20;0.00;;;;;;;;;;5006106;28;20064;-82
2023/10/27 12:48:56;;;;;;;0.20;0.17;;;;;;;;;;4996804;28;20044;-82
2023/10/27 12:51:22;;;;;;;0.25;0.25;;;;;;;;;;4990774;28;20131;-81
2023/10/27 12:53:48;;;;;;;0.20;0.05;;;;;;;;;;5000954;28;20073;-81
2023/10/27 12:56:14;;;;;;;0.20;0.00;;;;;;;;;;4983757;28;20502;-82
2023/10/27 12:58:41;;;;;;;0.20;0.20;;;;;;;;;;5007486;28;20152;-81
2023/10/27 13:01:07;;;;;;;0.43;0.43;;;;;;;;;;5004868;28;20547;-82
2023/10/27 13:03:33;;;;;;;0.20;0.00;;;;;;;;;;5004270;28;20498;-82
2023/10/27 13:05:59;;;;;;;0.20;0.10;;;;;;;;;;5002274;28;20076;-81
2023/10/27 13:08:25;;;;;;;0.20;0.10;;;;;;;;;;5003813;28;20112;-82
2023/10/27 13:10:51;;;;;;;0.20;0.10;;;;;;;;;;5004835;28;20046;-81
2023/10/27 13:13:17;;;;;;;0.20;0.10;;;;;;;;;;5005929;28;20092;-81
2023/10/27 13:15:43;;;;;;;0.20;0.10;;;;;;;;;;5003773;28;20280;-81
2023/10/27 13:18:09;;;;;;;0.40;0.25;;;;;;;;;;5003224;28;20056;-81
2023/10/27 13:20:35;;;;;;;0.20;0.10;;;;;;;;;;4997978;28;20041;-83
2023/10/27 13:23:02;;;;;;;0.20;0.10;;;;;;;;;;5003541;28;20033;-81
2023/10/27 13:25:28;;;;;;;0.20;0.00;;;;;;;;;;5006649;28;20041;-81
2023/10/27 13:27:54;;;;;;;0.20;0.10;;;;;;;;;;5018543;28;20034;-82
2023/10/27 13:30:22;;;;;;;0.20;0.10;;;;;;;;;;5003876;28;20175;-82
2023/10/27 13:32:52;;;;;;;0.20;0.00;;;;;;;;;;5016607;28;20071;-83
2023/10/27 13:35:24;;;;;;;0.20;0.10;;;;;;;;;;5018940;28;20338;-82
2023/10/27 13:37:53;;;;;;;0.20;0.00;;;;;;;;;;5005946;28;20045;-83
2023/10/27 13:40:19;;;;;;;0.20;0.00;;;;;;;;;;4983217;28;20648;-83
2023/10/27 13:42:48;;;;;;;0.20;0.00;;;;;;;;;;4989047;28;20037;-82
2023/10/27 13:45:15;;;;;;;0.20;0.10;;;;;;;;;;5004291;28;20042;-82
2023/10/27 13:47:41;;;;;;;0.20;0.10;;;;;;;;;;5002356;28;20439;-81
2023/10/27 13:50:08;;;;;;;0.20;0.10;;;;;;;;;;4987904;28;20034;-82
2023/10/27 13:52:34;;;;;;;0.20;0.10;;;;;;;;;;5003689;28;20541;-83
2023/10/27 13:55:00;;;;;;;0.20;0.10;;;;;;;;;;5002691;28;20565;-82
2023/10/27 13:57:26;;;;;;;0.43;0.43;;;;;;;;;;4982627;28;20044;-82
2023/10/27 13:59:52;;;;;;;0.28;0.10;;;;;;;;;;5003833;28;20041;-82
2023/10/27 14:02:18;;;;;;;0.20;0.00;;;;;;;;;;5002855;28;20044;-82
2023/10/27 14:04:44;;;;;;;0.20;0.05;;;;;;;;;;5003971;28;20065;-82
2023/10/27 14:07:10;;;;;;;0.20;0.10;;;;;;;;;;4989363;28;20073;-82
2023/10/27 14:09:36;;;;;;;0.20;0.10;;;;;;;;;;4998829;28;20092;-82
2023/10/27 14:12:02;;;;;;;0.30;0.20;;;;;;;;;;4992902;28;20116;-82
2023/10/27 14:14:30;;;;;;;0.20;0.00;;;;;;;;;;4987107;28;20127;-83
2023/10/27 14:16:59;;;;;;;0.20;0.15;;;;;;;;;;5000876;28;20551;-82
2023/10/27 14:19:27;;;;;;;0.20;0.10;;;;;;;;;;4999891;28;20107;-84
2023/10/27 14:21:53;;;;;;;0.20;0.10;;;;;;;;;;4984824;28;20041;-82
2023/10/27 14:24:19;;;;;;;0.20;0.10;;;;;;;;;;4987737;28;20041;-83
2023/10/27 14:26:47;;;;;;;1.55;0.35;;;;;;;;;;5001613;28;20053;-82
2023/10/27 14:29:13;;;;;;;0.20;0.10;;;;;;;;;;5014729;28;20061;-82
2023/10/27 14:31:39;;;;;;;0.20;0.10;;;;;;;;;;5005657;28;20061;-81
2023/10/27 14:34:09;;;;;;;0.20;0.10;;;;;;;;;;5013426;28;20045;-81
2023/10/27 14:36:35;;;;;;;0.20;0.00;;;;;;;;;;5005804;28;20054;-81
2023/10/27 14:39:05;;;;;;;0.30;0.30;;;;;;;;;;5008915;28;20060;-82
2023/10/27 14:41:31;;;;;;;0.20;0.10;;;;;;;;;;4988173;28;20064;-82